Time;durP1;ratioP1;P1;durP2;ratioP2;P2;SDS_P1;SDS_P2;PMS_P1;PMS_P2;Temp;Humidity;BMP_temperature;BMP_pressure;BME280_temperature;BME280_humidity;BME280_pressure;Samples;Min_cycle;Max_cycle;Signal;HPM_P1;HPM_P2
2022/09/19 00:01:54;;;;;;;;;;;;;;;11.52;79.51;99262.19;5073168;28;20039;-46
2022/09/19 00:04:20;;;;;;;;;;;;;;;11.54;79.02;99270.72;5072965;28;20347;-47
2022/09/19 00:06:46;;;;;;;;;;;;;;;11.60;78.17;99272.25;5072887;28;19920;-45
2022/09/19 00:09:13;;;;;;;;;;;;;;;11.72;78.00;99280.44;5071822;28;19962;-46
2022/09/19 00:11:39;;;;;;;;;;;;;;;11.87;77.93;99284.28;5053981;28;20119;-46
2022/09/19 00:14:04;;;;;;;;;;;;;;;11.53;79.76;99287.06;5072133;28;19916;-45
2022/09/19 00:16:30;;;;;;;;;;;;;;;11.38;79.04;99300.41;5073297;28;19982;-46
2022/09/19 00:18:56;;;;;;;;;;;;;;;11.83;76.28;99305.03;5073102;28;20019;-46
2022/09/19 00:21:22;;;;;;;;;;;;;;;11.60;79.09;99296.28;5053961;28;19977;-46
2022/09/19 00:26:31;;;;;;;;;;;;;;;11.62;78.95;99289.34;5072268;28;20796;-46
2022/09/19 00:28:57;;;;;;;;;;;;;;;11.61;78.73;99303.16;5065013;28;19959;-46
2022/09/19 00:31:22;;;;;;;;;;;;;;;11.54;80.31;99311.97;5070366;28;20005;-47
2022/09/19 00:33:47;;;;;;;;;;;;;;;11.69;79.39;99296.00;5071248;28;19972;-47
2022/09/19 00:36:14;;;;;;;;;;;;;;;11.73;81.27;99305.34;5072891;28;20454;-46
2022/09/19 00:38:39;;;;;;;;;;;;;;;12.53;80.98;99289.78;5055032;28;20842;-46
2022/09/19 00:41:05;;;;;;;;;;;;;;;12.34;85.82;99268.09;5054926;28;19977;-47
2022/09/19 00:43:48;;;;;;;;;;;;;;;12.33;86.58;99266.38;5051434;28;19927;-45
2022/09/19 00:46:13;;;;;;;;;;;;;;;12.32;87.64;99254.38;5071422;28;20010;-46
2022/09/19 00:48:41;;;;;;;;;;;;;;;12.32;89.06;99257.81;5073973;28;19915;-46
2022/09/19 00:51:07;;;;;;;;;;;;;;;12.45;87.35;99258.22;5072695;28;20467;-46
2022/09/19 00:53:33;;;;;;;;;;;;;;;12.37;90.31;99242.16;5054816;28;19916;-46
2022/09/19 00:55:58;;;;;;;;;;;;;;;12.41;88.47;99242.91;5072175;28;20020;-47
2022/09/19 00:58:26;;;;;;;;;;;;;;;12.39;88.73;99242.94;5072430;28;19920;-47
2022/09/19 01:00:51;;;;;;;;;;;;;;;12.12;89.27;99239.59;5072609;28;19920;-47
2022/09/19 01:03:16;;;;;;;;;;;;;;;12.07;88.53;99255.22;5072841;28;20002;-46
2022/09/19 01:05:42;;;;;;;;;;;;;;;12.67;85.03;99262.63;5070706;28;19974;-46
2022/09/19 01:08:16;;;;;;;;;;;;;;;12.23;88.22;99244.38;5072334;28;19955;-47
2022/09/19 01:10:56;;;;;;;;;;;;;;;12.18;87.41;99246.25;5070053;28;19968;-46
2022/09/19 01:13:24;;;;;;;;;;;;;;;12.31;86.23;99257.84;5053921;28;20671;-48
2022/09/19 01:15:51;;;;;;;;;;;;;;;12.47;88.42;99259.00;5052295;28;19920;-48
2022/09/19 01:18:17;;;;;;;;;;;;;;;12.20;89.93;99250.50;5071925;28;20510;-46
2022/09/19 01:21:37;;;;;;;;;;;;;;;12.37;87.23;99251.66;5053080;28;20015;-47
2022/09/19 01:24:08;;;;;;;;;;;;;;;11.89;90.51;99250.69;5073551;28;19916;-46
2022/09/19 01:26:33;;;;;;;;;;;;;;;12.08;88.31;99267.22;5071091;28;19926;-47
2022/09/19 01:28:59;;;;;;;;;;;;;;;11.92;89.22;99261.72;5073684;28;19920;-46
2022/09/19 01:31:29;;;;;;;;;;;;;;;11.87;89.53;99262.75;5052421;28;19939;-46
2022/09/19 01:34:01;;;;;;;;;;;;;;;11.85;87.04;99262.81;5054164;28;19934;-47
2022/09/19 01:36:30;;;;;;;;;;;;;;;12.25;86.49;99282.16;5051841;28;19928;-46
2022/09/19 01:38:57;;;;;;;;;;;;;;;12.24;85.94;99277.03;5054223;28;19923;-46
2022/09/19 01:41:22;;;;;;;;;;;;;;;11.97;88.77;99269.31;5050427;28;19919;-46
2022/09/19 01:43:48;;;;;;;;;;;;;;;12.08;86.94;99282.72;5072710;28;19920;-47
2022/09/19 01:46:21;;;;;;;;;;;;;;;12.26;86.08;99290.75;5070460;28;19920;-46
2022/09/19 01:49:07;;;;;;;;;;;;;;;11.70;88.27;99289.13;5054281;28;19920;-46
2022/09/19 01:51:59;;;;;;;;;;;;;;;11.87;86.73;99288.56;5053993;28;19924;-47
2022/09/19 01:54:54;;;;;;;;;;;;;;;11.74;86.82;99290.69;5067234;28;19943;-46
2022/09/19 01:57:25;;;;;;;;;;;;;;;12.13;84.48;99301.50;5052286;28;19936;-48
2022/09/19 02:00:05;;;;;;;;;;;;;;;11.73;86.18;99294.19;5072719;28;19920;-48
2022/09/19 02:02:37;;;;;;;;;;;;;;;11.76;83.85;99290.66;5071972;28;19920;-46
2022/09/19 02:05:08;;;;;;;;;;;;;;;11.68;84.08;99314.97;5053584;28;20007;-46
2022/09/19 02:07:39;;;;;;;;;;;;;;;11.78;82.99;99318.09;5055622;28;19926;-46
2022/09/19 02:10:06;;;;;;;;;;;;;;;12.10;81.44;99322.25;5074492;28;19928;-46
2022/09/19 02:12:32;;;;;;;;;;;;;;;11.98;82.50;99311.50;5056595;28;19920;-46
2022/09/19 02:14:57;;;;;;;;;;;;;;;12.07;84.17;99319.75;5057177;28;19930;-46
2022/09/19 02:17:24;;;;;;;;;;;;;;;11.88;84.45;99321.25;5073779;28;19935;-46
2022/09/19 02:19:54;;;;;;;;;;;;;;;12.10;84.08;99314.50;5054203;28;19932;-46
2022/09/19 02:22:22;;;;;;;;;;;;;;;12.07;84.70;99306.03;5056707;28;20018;-46
2022/09/19 02:24:48;;;;;;;;;;;;;;;11.87;86.77;99310.09;5076158;28;20014;-46
2022/09/19 02:27:20;;;;;;;;;;;;;;;11.98;85.38;99304.59;5055652;28;19916;-47
2022/09/19 02:29:48;;;;;;;;;;;;;;;12.38;85.94;99303.22;5074935;28;19924;-47
2022/09/19 02:32:16;;;;;;;;;;;;;;;12.64;87.48;99296.31;5056130;28;19984;-46
2022/09/19 02:34:41;;;;;;;;;;;;;;;12.23;89.68;99285.69;5057058;28;19947;-46
2022/09/19 02:37:12;;;;;;;;;;;;;;;12.38;88.38;99279.97;5074857;28;20042;-47
2022/09/19 02:39:48;;;;;;;;;;;;;;;12.11;89.56;99287.78;5073839;28;19991;-46
2022/09/19 02:42:20;;;;;;;;;;;;;;;11.60;89.49;99285.97;5055822;28;20427;-55
2022/09/19 02:45:02;;;;;;;;;;;;;;;12.41;84.52;99310.88;5074037;28;20729;-55
2022/09/19 02:47:28;;;;;;;;;;;;;;;12.08;84.25;99318.84;5074528;28;20285;-55
2022/09/19 02:49:54;;;;;;;;;;;;;;;11.83;87.82;99316.19;5075158;28;19920;-49
2022/09/19 02:52:21;;;;;;;;;;;;;;;12.37;84.52;99335.13;5056521;28;20460;-46
2022/09/19 02:54:48;;;;;;;;;;;;;;;12.01;87.21;99322.53;5054520;28;19916;-46
2022/09/19 02:57:14;;;;;;;;;;;;;;;12.12;85.37;99330.78;5073852;28;19980;-46
2022/09/19 02:59:40;;;;;;;;;;;;;;;11.80;85.10;99338.69;5055895;28;20393;-46
2022/09/19 03:02:16;;;;;;;;;;;;;;;11.78;81.13;99345.63;5057378;28;20011;-47
2022/09/19 03:04:42;;;;;;;;;;;;;;;11.71;80.30;99348.41;5057299;28;19923;-46
2022/09/19 03:07:12;;;;;;;;;;;;;;;11.82;79.62;99362.72;5056603;28;19959;-47
2022/09/19 03:09:37;;;;;;;;;;;;;;;12.11;79.49;99364.38;5056811;28;19920;-46
2022/09/19 03:12:06;;;;;;;;;;;;;;;11.68;80.56;99358.00;5055075;28;20309;-46
2022/09/19 03:14:32;;;;;;;;;;;;;;;11.80;78.78;99373.06;5073540;28;19920;-46
2022/09/19 03:16:57;;;;;;;;;;;;;;;11.79;77.43;99378.28;5055100;28;19973;-46
2022/09/19 03:19:23;;;;;;;;;;;;;;;11.75;76.15;99389.59;5054117;28;19969;-46
2022/09/19 03:21:51;;;;;;;;;;;;;;;11.81;76.80;99391.97;5074085;28;19920;-47
2022/09/19 03:24:16;;;;;;;;;;;;;;;12.32;77.12;99404.19;5073359;28;20308;-47
2022/09/19 03:26:41;;;;;;;;;;;;;;;11.96;79.39;99394.13;5073255;28;20083;-46
2022/09/19 03:29:08;;;;;;;;;;;;;;;11.93;78.54;99396.81;5074196;28;19931;-46
2022/09/19 03:31:33;;;;;;;;;;;;;;;12.66;75.32;99411.66;5073949;28;21010;-46
2022/09/19 03:33:59;;;;;;;;;;;;;;;12.14;80.75;99388.38;5074151;28;19973;-46
2022/09/19 03:36:24;;;;;;;;;;;;;;;12.34;83.34;99376.56;5073521;28;19920;-46
2022/09/19 03:38:50;;;;;;;;;;;;;;;12.45;86.43;99356.38;5054832;28;19999;-56
2022/09/19 03:41:16;;;;;;;;;;;;;;;13.00;86.10;99356.19;5074014;28;19916;-56
2022/09/19 03:43:44;;;;;;;;;;;;;;;12.77;91.49;99338.88;5053937;28;19920;-55
2022/09/19 03:46:11;;;;;;;;;;;;;;;12.67;92.83;99322.03;5072854;28;19912;-56
2022/09/19 03:48:36;;;;;;;;;;;;;;;13.03;95.91;99314.69;5072314;28;20380;-56
2022/09/19 03:51:01;;;;;;;;;;;;;;;12.47;98.32;99299.47;5073222;28;19926;-56
2022/09/19 03:53:27;;;;;;;;;;;;;;;12.63;94.99;99315.28;5073684;28;19974;-57
2022/09/19 03:55:53;;;;;;;;;;;;;;;12.61;97.16;99306.75;5073887;28;19994;-56
2022/09/19 03:58:18;;;;;;;;;;;;;;;12.68;95.05;99315.97;5075315;28;19912;-56
2022/09/19 04:00:43;;;;;;;;;;;;;;;12.60;93.15;99324.00;5074135;28;20732;-56
2022/09/19 04:03:09;;;;;;;;;;;;;;;12.31;94.79;99327.56;5073494;28;20240;-56
2022/09/19 04:05:34;;;;;;;;;;;;;;;12.82;93.74;99326.69;5073266;28;20928;-56
2022/09/19 04:08:01;;;;;;;;;;;;;;;12.54;97.17;99324.19;5074458;28;20722;-55
2022/09/19 04:10:26;;;;;;;;;;;;;;;12.31;96.37;99322.41;5070871;28;19924;-57
2022/09/19 04:12:51;;;;;;;;;;;;;;;12.69;93.98;99335.75;5071615;28;19926;-56
2022/09/19 04:15:17;;;;;;;;;;;;;;;12.63;95.44;99328.22;5073593;28;20003;-56
2022/09/19 04:17:42;;;;;;;;;;;;;;;12.59;96.69;99335.25;5073212;28;20046;-56
2022/09/19 04:20:09;;;;;;;;;;;;;;;12.86;97.72;99333.38;5071926;28;20324;-56
2022/09/19 04:22:37;;;;;;;;;;;;;;;12.67;98.78;99327.22;5072312;28;20693;-56
2022/09/19 04:25:02;;;;;;;;;;;;;;;12.38;97.31;99326.47;5074146;28;19966;-56
2022/09/19 04:27:27;;;;;;;;;;;;;;;12.65;95.16;99335.00;5070972;28;20003;-56
2022/09/19 04:29:52;;;;;;;;;;;;;;;13.05;96.54;99333.59;5071312;28;20003;-57
2022/09/19 04:32:18;;;;;;;;;;;;;;;12.83;99.47;99325.75;5070633;28;20015;-56
2022/09/19 04:34:43;;;;;;;;;;;;;;;12.88;97.57;99331.59;5073542;28;19912;-56
2022/09/19 04:37:09;;;;;;;;;;;;;;;12.98;100.00;99330.38;5072619;28;20015;-55
2022/09/19 04:39:34;;;;;;;;;;;;;;;13.10;100.00;99317.91;5072294;28;19962;-56
2022/09/19 04:42:01;;;;;;;;;;;;;;;12.88;100.00;99315.25;5071288;28;20026;-56
2022/09/19 04:44:29;;;;;;;;;;;;;;;12.99;100.00;99328.63;5071366;28;20552;-56
2022/09/19 04:46:55;;;;;;;;;;;;;;;13.18;100.00;99328.78;5071381;28;20446;-56
2022/09/19 04:49:20;;;;;;;;;;;;;;;13.02;100.00;99325.09;5073115;28;19916;-55
2022/09/19 04:51:45;;;;;;;;;;;;;;;12.92;100.00;99333.19;5073852;28;19920;-56
2022/09/19 04:54:11;;;;;;;;;;;;;;;13.30;100.00;99330.97;5072910;28;20014;-55
2022/09/19 04:56:36;;;;;;;;;;;;;;;13.06;100.00;99324.09;5068679;28;20479;-56
2022/09/19 04:59:02;;;;;;;;;;;;;;;12.98;100.00;99332.97;5074245;28;20330;-57
2022/09/19 05:01:30;;;;;;;;;;;;;;;12.52;100.00;99332.03;5072190;28;19916;-56
2022/09/19 05:03:56;;;;;;;;;;;;;;;13.04;100.00;99346.56;5073468;28;20281;-56
2022/09/19 05:06:21;;;;;;;;;;;;;;;13.18;100.00;99352.94;5074154;28;19916;-56
2022/09/19 05:08:46;;;;;;;;;;;;;;;12.81;100.00;99335.31;5073959;28;20027;-55
2022/09/19 05:11:12;;;;;;;;;;;;;;;13.03;100.00;99357.81;5072520;28;19920;-55
2022/09/19 05:13:40;;;;;;;;;;;;;;;12.84;100.00;99355.91;5073268;28;19916;-56
2022/09/19 05:16:06;;;;;;;;;;;;;;;13.19;100.00;99362.34;5073592;28;19916;-56
2022/09/19 05:18:37;;;;;;;;;;;;;;;12.89;100.00;99358.31;5073929;28;20697;-56
2022/09/19 05:21:04;;;;;;;;;;;;;;;13.14;98.55;99378.97;5072212;28;20422;-56
2022/09/19 05:23:29;;;;;;;;;;;;;;;13.65;100.00;99364.97;5071879;28;19920;-56
2022/09/19 05:25:55;;;;;;;;;;;;;;;13.22;100.00;99363.16;5072712;28;19920;-56
2022/09/19 05:28:27;;;;;;;;;;;;;;;13.51;100.00;99367.28;5073560;28;19915;-56
2022/09/19 05:30:55;;;;;;;;;;;;;;;13.45;100.00;99357.13;5074306;28;20193;-56
2022/09/19 05:33:25;;;;;;;;;;;;;;;13.26;100.00;99360.38;5073956;28;20019;-56
2022/09/19 05:35:50;;;;;;;;;;;;;;;13.10;100.00;99367.03;5073087;28;19965;-55
2022/09/19 05:38:16;;;;;;;;;;;;;;;13.01;100.00;99373.38;5073031;28;20335;-56
2022/09/19 05:40:41;;;;;;;;;;;;;;;13.16;100.00;99383.16;5069893;28;19920;-54
2022/09/19 05:43:06;;;;;;;;;;;;;;;13.48;100.00;99382.88;5072520;28;20623;-53
2022/09/19 05:45:31;;;;;;;;;;;;;;;13.06;100.00;99380.97;5073311;28;20031;-54
2022/09/19 05:48:06;;;;;;;;;;;;;;;13.11;97.37;99389.38;5072158;28;20016;-54
2022/09/19 05:50:32;;;;;;;;;;;;;;;13.59;97.68;99396.25;5072621;28;19924;-54
2022/09/19 05:55:41;;;;;;;;;;;;;;;12.81;99.91;99393.91;5071866;28;19936;-54
2022/09/19 05:58:06;;;;;;;;;;;;;;;13.09;94.48;99411.88;5073991;28;19920;-54
2022/09/19 06:00:32;;;;;;;;;;;;;;;13.20;92.03;99420.09;5072778;28;20015;-54
2022/09/19 06:03:00;;;;;;;;;;;;;;;12.46;91.44;99443.31;5073412;28;19920;-55
2022/09/19 06:05:25;;;;;;;;;;;;;;;13.14;82.49;99456.53;5073040;28;20442;-54
2022/09/19 06:07:56;;;;;;;;;;;;;;;13.06;86.85;99453.38;5072100;28;19916;-55
2022/09/19 06:10:21;;;;;;;;;;;;;;;12.83;83.10;99465.34;5053855;28;19938;-54
2022/09/19 06:12:47;;;;;;;;;;;;;;;12.92;79.69;99472.78;5073532;28;19924;-55
2022/09/19 06:15:12;;;;;;;;;;;;;;;13.30;79.02;99483.56;5072833;28;20393;-55
2022/09/19 06:17:38;;;;;;;;;;;;;;;13.08;83.43;99467.09;5072771;28;20001;-54
2022/09/19 06:20:03;;;;;;;;;;;;;;;12.71;83.65;99463.16;5072956;28;20474;-53
2022/09/19 06:22:29;;;;;;;;;;;;;;;13.12;80.94;99482.44;5073211;28;19920;-54
2022/09/19 06:24:54;;;;;;;;;;;;;;;13.24;81.83;99476.00;5072300;28;19939;-55
2022/09/19 06:27:19;;;;;;;;;;;;;;;13.11;78.98;99492.81;5072568;28;20030;-55
2022/09/19 06:29:46;;;;;;;;;;;;;;;12.87;79.94;99491.94;5073192;28;20026;-55
2022/09/19 06:32:11;;;;;;;;;;;;;;;13.01;78.89;99506.97;5072924;28;20018;-54
2022/09/19 06:34:37;;;;;;;;;;;;;;;12.97;76.05;99516.56;5073069;28;20135;-55
2022/09/19 06:37:02;;;;;;;;;;;;;;;13.06;77.91;99512.84;5072758;28;19912;-55
2022/09/19 06:39:27;;;;;;;;;;;;;;;13.35;79.03;99523.06;5072066;28;20463;-54
2022/09/19 06:41:54;;;;;;;;;;;;;;;13.21;77.71;99530.41;5073476;28;20447;-54
2022/09/19 06:44:20;;;;;;;;;;;;;;;13.19;77.22;99539.97;5072621;28;19916;-55
2022/09/19 06:46:45;;;;;;;;;;;;;;;13.38;77.55;99538.44;5072296;28;19962;-56
2022/09/19 06:49:10;;;;;;;;;;;;;;;13.26;74.97;99554.38;5073153;28;19959;-55
2022/09/19 06:51:36;;;;;;;;;;;;;;;13.22;76.85;99554.53;5073326;28;19927;-55
2022/09/19 06:54:01;;;;;;;;;;;;;;;12.92;74.92;99550.31;5076401;28;19923;-55
2022/09/19 06:56:26;;;;;;;;;;;;;;;13.45;76.56;99570.13;5065782;28;19932;-56
2022/09/19 06:58:52;;;;;;;;;;;;;;;13.33;78.16;99558.47;5056480;28;20149;-54
2022/09/19 07:01:17;;;;;;;;;;;;;;;13.61;79.09;99552.34;5074737;28;19951;-55
2022/09/19 07:03:42;;;;;;;;;;;;;;;13.36;82.60;99544.59;5075914;28;20000;-55
2022/09/19 07:06:08;;;;;;;;;;;;;;;13.39;80.35;99555.69;5076035;28;19939;-55
2022/09/19 07:08:33;;;;;;;;;;;;;;;13.19;80.72;99547.72;5076285;28;19920;-55
2022/09/19 07:10:58;;;;;;;;;;;;;;;13.50;77.75;99567.38;5075282;28;19934;-55
2022/09/19 07:13:23;;;;;;;;;;;;;;;13.54;77.23;99558.63;5076740;28;19916;-55
2022/09/19 07:15:49;;;;;;;;;;;;;;;14.06;75.47;99569.69;5075948;28;20850;-54
2022/09/19 07:18:14;;;;;;;;;;;;;;;13.75;85.59;99541.47;5076904;28;19958;-54
2022/09/19 07:20:40;;;;;;;;;;;;;;;13.78;83.70;99539.63;5075851;28;19974;-55
2022/09/19 07:23:07;;;;;;;;;;;;;;;13.83;84.00;99536.03;5075509;28;19927;-54
2022/09/19 07:25:32;;;;;;;;;;;;;;;13.86;83.44;99547.09;5074978;28;19915;-55
2022/09/19 07:27:58;;;;;;;;;;;;;;;13.31;86.24;99536.97;5074987;28;19916;-54
2022/09/19 07:30:24;;;;;;;;;;;;;;;13.79;80.49;99556.84;5075560;28;19931;-55
2022/09/19 07:32:49;;;;;;;;;;;;;;;13.81;80.03;99568.00;5075952;28;20698;-54
2022/09/19 07:35:14;;;;;;;;;;;;;;;13.63;81.24;99567.81;5076213;28;20545;-55
2022/09/19 07:37:39;;;;;;;;;;;;;;;14.13;81.23;99568.56;5057297;28;19916;-55
2022/09/19 07:40:05;;;;;;;;;;;;;;;14.02;85.23;99545.63;5075932;28;19962;-55
2022/09/19 07:42:30;;;;;;;;;;;;;;;14.02;85.96;99547.38;5066854;28;19999;-54
2022/09/19 07:44:55;;;;;;;;;;;;;;;13.72;83.11;99554.53;5056706;28;19916;-55
2022/09/19 07:47:26;;;;;;;;;;;;;;;14.12;80.61;99566.88;5074833;28;20009;-55
2022/09/19 07:49:54;;;;;;;;;;;;;;;13.98;79.45;99576.88;5075210;28;20016;-55
2022/09/19 07:52:19;;;;;;;;;;;;;;;14.44;79.28;99582.94;5075814;28;20372;-55
2022/09/19 07:54:44;;;;;;;;;;;;;;;13.96;83.93;99574.38;5075588;28;20035;-53
2022/09/19 07:57:10;;;;;;;;;;;;;;;14.80;79.81;99585.00;5074742;28;20526;-53
2022/09/19 07:59:35;;;;;;;;;;;;;;;14.03;83.06;99587.94;5075617;28;20018;-55
2022/09/19 08:02:00;;;;;;;;;;;;;;;14.06;79.10;99600.75;5074694;28;19916;-55
2022/09/19 08:04:27;;;;;;;;;;;;;;;14.38;78.09;99615.09;5074773;28;19916;-55
2022/09/19 08:06:52;;;;;;;;;;;;;;;13.83;81.41;99595.59;5074822;28;19916;-56
2022/09/19 08:09:17;;;;;;;;;;;;;;;14.09;78.41;99617.94;5074036;28;19916;-55
2022/09/19 08:11:43;;;;;;;;;;;;;;;14.18;79.45;99615.84;5074452;28;19927;-55
2022/09/19 08:14:08;;;;;;;;;;;;;;;14.69;79.46;99618.28;5074640;28;19916;-55
2022/09/19 08:16:34;;;;;;;;;;;;;;;14.58;85.25;99596.25;5074323;28;19921;-56
2022/09/19 08:18:59;;;;;;;;;;;;;;;14.54;87.03;99588.63;5073599;28;20381;-56
2022/09/19 08:21:25;;;;;;;;;;;;;;;13.99;87.41;99599.31;5065854;28;19924;-56
2022/09/19 08:23:50;;;;;;;;;;;;;;;13.83;86.12;99604.19;5056523;28;20007;-56
2022/09/19 08:26:16;;;;;;;;;;;;;;;14.56;81.78;99621.38;5073045;28;20945;-55
2022/09/19 08:28:42;;;;;;;;;;;;;;;15.06;88.06;99600.38;5074827;28;19923;-55
2022/09/19 08:31:09;;;;;;;;;;;;;;;14.94;91.56;99582.72;5074005;28;20221;-56
2022/09/19 08:33:34;;;;;;;;;;;;;;;14.48;94.30;99574.13;5074301;28;20007;-56
2022/09/19 08:36:00;;;;;;;;;;;;;;;14.70;94.91;99573.34;5056032;28;20381;-56
2022/09/19 08:38:26;;;;;;;;;;;;;;;14.97;98.75;99580.00;5074841;28;19916;-56
2022/09/19 08:40:51;;;;;;;;;;;;;;;14.50;100.00;99561.13;5056629;28;19916;-56
2022/09/19 08:43:34;;;;;;;;;;;;;;;14.45;97.55;99579.44;5074191;28;19916;-56
2022/09/19 08:46:18;;;;;;;;;;;;;;;14.99;97.02;99580.78;5072430;28;20205;-56
2022/09/19 08:48:50;;;;;;;;;;;;;;;14.97;100.00;99567.03;5074301;28;19990;-57
2022/09/19 08:51:41;;;;;;;;;;;;;;;14.77;100.00;99565.25;5073914;28;20024;-56
2022/09/19 08:54:13;;;;;;;;;;;;;;;15.21;100.00;99559.13;5048661;28;19916;-57
2022/09/19 08:56:39;;;;;;;;;;;;;;;15.57;100.00;99556.72;5055334;28;19916;-57
2022/09/19 08:59:04;;;;;;;;;;;;;;;14.87;100.00;99542.41;5055838;28;19935;-57
2022/09/19 09:01:32;;;;;;;;;;;;;;;15.37;100.00;99552.41;5055077;28;20361;-57
2022/09/19 09:04:09;;;;;;;;;;;;;;;14.42;100.00;99541.53;5055802;28;19916;-57
2022/09/19 09:06:40;;;;;;;;;;;;;;;15.47;100.00;99574.44;5073779;28;19920;-57
2022/09/19 09:09:05;;;;;;;;;;;;;;;14.85;100.00;99558.00;5055435;28;19916;-57
2022/09/19 09:11:50;;;;;;;;;;;;;;;15.21;100.00;99564.31;5073786;28;19928;-57
2022/09/19 09:14:16;;;;;;;;;;;;;;;16.25;100.00;99569.31;5031512;28;19916;-57
2022/09/19 09:16:41;;;;;;;;;;;;;;;15.69;100.00;99551.00;5073380;28;19923;-57
2022/09/19 09:19:24;;;;;;;;;;;;;;;15.75;100.00;99538.69;5073505;28;19922;-57
2022/09/19 09:22:11;;;;;;;;;;;;;;;15.89;100.00;99526.75;5073967;28;19931;-57
2022/09/19 09:24:38;;;;;;;;;;;;;;;15.53;100.00;99531.81;5032491;28;19920;-56
2022/09/19 09:27:04;;;;;;;;;;;;;;;15.79;100.00;99546.25;5055110;28;20388;-56
2022/09/19 09:29:31;;;;;;;;;;;;;;;15.52;100.00;99526.69;5073223;28;19916;-56
2022/09/19 09:32:15;;;;;;;;;;;;;;;15.36;100.00;99534.28;5056132;28;19920;-56
2022/09/19 09:34:43;;;;;;;;;;;;;;;16.23;100.00;99525.19;5073558;28;19937;-56
2022/09/19 09:37:12;;;;;;;;;;;;;;;16.56;100.00;99515.84;5073633;28;20007;-56
2022/09/19 09:39:50;;;;;;;;;;;;;;;16.26;100.00;99493.88;5048495;28;20039;-56
2022/09/19 09:42:17;;;;;;;;;;;;;;;16.42;100.00;99493.13;5041413;28;19923;-56
2022/09/19 09:44:54;;;;;;;;;;;;;;;16.98;100.00;99481.72;5054780;28;19916;-55
2022/09/19 09:47:39;;;;;;;;;;;;;;;16.99;100.00;99457.41;5069798;28;19977;-55
2022/09/19 09:50:28;;;;;;;;;;;;;;;16.83;100.00;99435.66;5071054;28;20576;-55
2022/09/19 09:53:03;;;;;;;;;;;;;;;16.80;100.00;99433.22;5061197;28;20312;-55
2022/09/19 09:58:15;;;;;;;;;;;;;;;17.86;100.00;99431.13;5072182;28;19923;-55
2022/09/19 10:03:49;;;;;;;;;;;;;;;16.36;100.00;99415.47;5072089;28;19955;-56
2022/09/19 10:06:33;;;;;;;;;;;;;;;16.87;100.00;99419.81;5054524;28;19916;-54
2022/09/19 10:09:14;;;;;;;;;;;;;;;17.33;100.00;99419.19;5071398;28;19959;-55
2022/09/19 10:11:48;;;;;;;;;;;;;;;17.23;100.00;99397.19;5037053;28;20049;-54
2022/09/19 10:14:22;;;;;;;;;;;;;;;17.33;100.00;99403.56;5055225;28;19954;-55
2022/09/19 10:16:48;;;;;;;;;;;;;;;17.09;100.00;99384.91;5054651;28;19973;-54
2022/09/19 10:19:25;;;;;;;;;;;;;;;17.27;100.00;99388.28;5054724;28;19923;-54
2022/09/19 10:21:52;;;;;;;;;;;;;;;16.67;100.00;99371.41;5053674;28;20003;-55
2022/09/19 10:24:37;;;;;;;;;;;;;;;16.75;100.00;99364.97;5073078;28;19927;-55
2022/09/19 10:27:08;;;;;;;;;;;;;;;17.45;100.00;99355.22;5073134;28;19923;-55
2022/09/19 10:29:34;;;;;;;;;;;;;;;17.09;100.00;99364.91;5057264;28;19920;-54
2022/09/19 10:32:05;;;;;;;;;;;;;;;17.33;100.00;99367.97;5074540;28;19927;-54
2022/09/19 10:34:34;;;;;;;;;;;;;;;17.25;100.00;99358.91;5049717;28;19928;-54
2022/09/19 10:37:02;;;;;;;;;;;;;;;17.09;100.00;99349.31;5075581;28;21034;-54
2022/09/19 10:39:29;;;;;;;;;;;;;;;17.03;100.00;99346.19;5076717;28;19916;-55
2022/09/19 10:41:54;;;;;;;;;;;;;;;18.00;100.00;99340.91;5076995;28;19916;-55
2022/09/19 10:44:22;;;;;;;;;;;;;;;18.21;100.00;99331.84;5075917;28;19923;-54
2022/09/19 10:46:55;;;;;;;;;;;;;;;18.86;100.00;99314.97;5074764;28;19916;-55
2022/09/19 10:49:22;;;;;;;;;;;;;;;17.56;100.00;99280.78;5058254;28;20566;-55
2022/09/19 10:51:48;;;;;;;;;;;;;;;16.98;100.00;99301.38;5050012;28;20049;-55
2022/09/19 10:54:21;;;;;;;;;;;;;;;17.52;100.00;99309.69;5058054;28;19920;-55
2022/09/19 10:56:47;;;;;;;;;;;;;;;18.07;100.00;99290.09;5057724;28;20504;-54
2022/09/19 10:59:13;;;;;;;;;;;;;;;18.57;100.00;99274.06;5058343;28;20458;-55
2022/09/19 11:01:38;;;;;;;;;;;;;;;19.60;100.00;99269.41;5076583;28;19916;-55
2022/09/19 11:04:04;;;;;;;;;;;;;;;19.08;100.00;99231.81;5076456;28;19970;-55
2022/09/19 11:06:30;;;;;;;;;;;;;;;19.67;100.00;99210.59;5075378;28;20038;-55
2022/09/19 11:08:55;;;;;;;;;;;;;;;17.65;100.00;99206.50;5070332;28;19916;-55
2022/09/19 11:11:37;;;;;;;;;;;;;;;17.34;100.00;99202.22;5064878;28;19977;-53
2022/09/19 11:14:05;;;;;;;;;;;;;;;17.69;100.00;99212.34;5073657;28;19991;-54
2022/09/19 11:16:37;;;;;;;;;;;;;;;17.75;100.00;99202.44;5073502;28;20747;-53
2022/09/19 11:19:06;;;;;;;;;;;;;;;18.49;100.00;99189.38;5075739;28;19923;-53
2022/09/19 11:21:34;;;;;;;;;;;;;;;18.16;100.00;99169.66;5056864;28;20821;-53
2022/09/19 11:24:13;;;;;;;;;;;;;;;18.71;100.00;99170.63;5075595;28;20010;-54
2022/09/19 11:26:54;;;;;;;;;;;;;;;18.99;100.00;99161.91;5075433;28;20373;-53
2022/09/19 11:29:33;;;;;;;;;;;;;;;18.81;100.00;99166.53;5056637;28;19946;-54
2022/09/19 11:32:17;;;;;;;;;;;;;;;17.98;100.00;99172.44;5057813;28;19988;-53
2022/09/19 11:34:46;;;;;;;;;;;;;;;18.42;100.00;99154.19;5075111;28;19926;-52
2022/09/19 11:37:11;;;;;;;;;;;;;;;19.19;100.00;99155.41;5074512;28;19920;-46
2022/09/19 11:39:39;;;;;;;;;;;;;;;19.25;100.00;99143.72;5073651;28;19916;-45
2022/09/19 11:42:20;;;;;;;;;;;;;;;18.27;100.00;99143.78;5075612;28;20444;-45
2022/09/19 11:45:04;;;;;;;;;;;;;;;18.87;100.00;99153.09;5075683;28;19993;-46
2022/09/19 11:47:50;;;;;;;;;;;;;;;19.88;100.00;99143.00;5056572;28;20415;-47
2022/09/19 11:50:31;;;;;;;;;;;;;;;18.93;100.00;99154.47;5075153;28;19920;-47
2022/09/19 11:52:56;;;;;;;;;;;;;;;18.72;100.00;99152.25;5045621;28;19920;-47
2022/09/19 11:55:43;;;;;;;;;;;;;;;18.84;100.00;99139.41;5073191;28;19954;-46
2022/09/19 11:58:29;;;;;;;;;;;;;;;19.80;100.00;99137.50;5057433;28;20419;-47
2022/09/19 12:01:05;;;;;;;;;;;;;;;19.51;100.00;99131.56;5074863;28;19916;-47
2022/09/19 12:03:43;;;;;;;;;;;;;;;19.35;100.00;99129.13;5057750;28;20396;-48
2022/09/19 12:06:35;;;;;;;;;;;;;;;19.22;100.00;99131.72;5074001;28;20582;-46
2022/09/19 12:09:12;;;;;;;;;;;;;;;19.40;100.00;99129.66;5070073;28;19963;-46
2022/09/19 12:11:41;;;;;;;;;;;;;;;17.90;100.00;99139.94;5056519;28;19999;-46
2022/09/19 12:14:09;;;;;;;;;;;;;;;17.78;100.00;99144.94;5056565;28;19920;-46
2022/09/19 12:16:39;;;;;;;;;;;;;;;18.18;100.00;99144.34;5055400;28;19920;-46
2022/09/19 12:19:09;;;;;;;;;;;;;;;18.15;100.00;99153.19;5057434;28;19923;-45
2022/09/19 12:21:35;;;;;;;;;;;;;;;18.37;100.00;99152.69;5056668;28;20086;-47
2022/09/19 12:26:49;;;;;;;;;;;;;;;19.25;100.00;99139.38;5052059;28;20292;-46
2022/09/19 12:29:19;;;;;;;;;;;;;;;18.95;100.00;99132.59;5074540;28;19920;-46
2022/09/19 12:31:45;;;;;;;;;;;;;;;18.38;100.00;99138.75;5057100;28;20335;-45
2022/09/19 12:34:21;;;;;;;;;;;;;;;18.36;100.00;99145.00;5056723;28;19920;-45
2022/09/19 12:36:46;;;;;;;;;;;;;;;17.69;100.00;99144.63;5056285;28;19946;-45
2022/09/19 12:39:14;;;;;;;;;;;;;;;17.75;100.00;99149.50;5075039;28;20428;-45
2022/09/19 12:41:42;;;;;;;;;;;;;;;17.12;100.00;99168.72;5073578;28;19973;-45
2022/09/19 12:44:13;;;;;;;;;;;;;;;17.55;100.00;99167.13;5074912;28;20430;-45
2022/09/19 12:46:38;;;;;;;;;;;;;;;17.67;100.00;99168.16;5073425;28;19912;-47
2022/09/19 12:49:12;;;;;;;;;;;;;;;17.37;100.00;99160.38;5074872;28;20815;-46
2022/09/19 12:51:53;;;;;;;;;;;;;;;18.17;100.00;99150.47;5073604;28;20362;-47
2022/09/19 12:54:58;;;;;;;;;;;;;;;18.38;100.00;99137.88;5056113;28;20390;-45
2022/09/19 12:57:23;;;;;;;;;;;;;;;19.48;100.00;99130.00;4991480;28;20825;-45
2022/09/19 12:59:48;;;;;;;;;;;;;;;19.45;100.00;99114.53;4992224;28;19929;-46
2022/09/19 13:02:30;;;;;;;;;;;;;;;20.30;100.00;99120.09;5012958;28;19916;-46
2022/09/19 13:05:10;;;;;;;;;;;;;;;20.26;100.00;99108.16;5073218;28;19912;-46
2022/09/19 13:07:46;;;;;;;;;;;;;;;19.94;100.00;99124.31;5073964;28;19919;-46